Time;durP1;ratioP1;P1;durP2;ratioP2;P2;SDS_P1;SDS_P2;PMS_P1;PMS_P2;Temp;Humidity;BMP_temperature;BMP_pressure;BME280_temperature;BME280_humidity;BME280_pressure;Samples;Min_cycle;Max_cycle;Signal;HPM_P1;HPM_P2
2022/01/19 00:00:43;;;;;;;7.70;5.10;;;;;;;;;;5030321;28;20222;-65
2022/01/19 00:03:14;;;;;;;6.60;4.97;;;;;;;;;;5027014;28;20214;-66
2022/01/19 00:05:49;;;;;;;5.37;4.20;;;;;;;;;;5011865;28;20206;-66
2022/01/19 00:08:23;;;;;;;6.27;4.53;;;;;;;;;;5025246;28;20195;-66
2022/01/19 00:10:56;;;;;;;6.07;4.90;;;;;;;;;;5029639;28;20261;-66
2022/01/19 00:13:26;;;;;;;6.77;5.00;;;;;;;;;;5016849;28;20692;-66
2022/01/19 00:15:57;;;;;;;6.30;4.23;;;;;;;;;;5025965;28;20277;-66
2022/01/19 00:18:30;;;;;;;5.33;4.57;;;;;;;;;;5012615;28;20303;-66
2022/01/19 00:21:03;;;;;;;4.97;3.97;;;;;;;;;;5016304;28;20234;-66
2022/01/19 00:23:34;;;;;;;5.77;4.47;;;;;;;;;;5010152;28;20226;-66
2022/01/19 00:26:06;;;;;;;4.43;3.90;;;;;;;;;;5028273;28;20613;-65
2022/01/19 00:28:35;;;;;;;6.43;4.43;;;;;;;;;;5024757;28;20310;-66
2022/01/19 00:31:02;;;;;;;7.57;4.80;;;;;;;;;;5023214;28;20233;-66
2022/01/19 00:33:36;;;;;;;6.37;4.43;;;;;;;;;;5023728;28;20217;-66
2022/01/19 00:36:08;;;;;;;6.37;4.57;;;;;;;;;;5014865;28;20242;-66
2022/01/19 00:38:41;;;;;;;4.53;4.13;;;;;;;;;;5026441;28;20202;-66
2022/01/19 00:41:14;;;;;;;4.73;4.33;;;;;;;;;;5024318;28;20230;-66
2022/01/19 00:43:45;;;;;;;5.87;4.27;;;;;;;;;;5002737;28;20300;-65
2022/01/19 00:46:14;;;;;;;6.50;4.67;;;;;;;;;;5026451;28;20644;-65
2022/01/19 00:48:44;;;;;;;5.77;4.47;;;;;;;;;;4998560;28;20210;-66
2022/01/19 00:51:17;;;;;;;6.13;4.60;;;;;;;;;;5025087;28;20191;-66
2022/01/19 00:53:49;;;;;;;4.87;3.90;;;;;;;;;;5020504;28;20211;-66
2022/01/19 00:56:17;;;;;;;6.27;4.33;;;;;;;;;;5024890;28;20738;-66
2022/01/19 00:58:49;;;;;;;5.97;4.07;;;;;;;;;;5027145;28;20736;-66
2022/01/19 01:01:22;;;;;;;4.47;3.60;;;;;;;;;;5026072;28;20675;-66
2022/01/19 01:03:57;;;;;;;5.87;4.03;;;;;;;;;;5024803;28;20218;-66
2022/01/19 01:06:33;;;;;;;4.67;4.03;;;;;;;;;;5022699;28;20203;-65
2022/01/19 01:09:05;;;;;;;5.67;4.60;;;;;;;;;;5024946;28;20212;-65
2022/01/19 01:20:09;;;;;;;4.73;3.77;;;;;;;;;;5026342;28;20219;-66
2022/01/19 01:22:45;;;;;;;6.00;4.43;;;;;;;;;;5008263;28;20183;-66
2022/01/19 01:25:17;;;;;;;5.63;4.73;;;;;;;;;;5023914;28;20194;-65
2022/01/19 01:27:49;;;;;;;5.60;4.07;;;;;;;;;;5021946;28;20614;-66
2022/01/19 01:30:19;;;;;;;5.43;4.13;;;;;;;;;;5021234;28;20272;-66
2022/01/19 01:32:54;;;;;;;5.10;4.00;;;;;;;;;;5022524;28;20191;-66
2022/01/19 01:35:23;;;;;;;5.53;4.30;;;;;;;;;;5012094;28;20198;-66
2022/01/19 01:37:54;;;;;;;5.57;4.20;;;;;;;;;;5015190;28;20207;-66
2022/01/19 01:40:28;;;;;;;5.40;4.20;;;;;;;;;;5016538;28;20913;-67
2022/01/19 01:42:59;;;;;;;4.43;4.03;;;;;;;;;;5022544;28;20207;-67
2022/01/19 01:45:31;;;;;;;5.47;4.20;;;;;;;;;;5013689;28;20213;-67
2022/01/19 01:48:09;;;;;;;6.50;3.87;;;;;;;;;;5026840;28;20205;-66
2022/01/19 01:53:27;;;;;;;6.03;4.20;;;;;;;;;;5008213;28;20235;-66
2022/01/19 01:56:10;;;;;;;4.63;4.13;;;;;;;;;;5008109;28;20579;-65
2022/01/19 01:58:49;;;;;;;4.63;3.77;;;;;;;;;;5025468;28;20199;-66
2022/01/19 02:01:20;;;;;;;5.37;4.30;;;;;;;;;;5027021;28;20202;-66
2022/01/19 02:03:51;;;;;;;6.03;4.13;;;;;;;;;;5023139;28;20218;-66
2022/01/19 02:06:46;;;;;;;5.77;4.57;;;;;;;;;;4999521;28;20534;-66
2022/01/19 02:09:20;;;;;;;5.17;4.57;;;;;;;;;;5008844;28;20238;-66
2022/01/19 02:23:23;;;;;;;5.67;4.60;;;;;;;;;;5023517;28;20277;-65
2022/01/19 02:25:56;;;;;;;4.97;4.47;;;;;;;;;;5020485;28;20199;-65
2022/01/19 02:36:49;;;;;;;6.50;4.60;;;;;;;;;;5021466;28;20233;-65
2022/01/19 02:42:16;;;;;;;6.10;4.43;;;;;;;;;;5023427;28;20222;-65
2022/01/19 02:49:56;;;;;;;6.73;5.13;;;;;;;;;;5025420;28;20199;-65
2022/01/19 02:52:24;;;;;;;5.83;4.47;;;;;;;;;;5026627;28;20226;-65
2022/01/19 02:54:53;;;;;;;6.73;5.17;;;;;;;;;;5009144;28;20555;-65
2022/01/19 02:57:26;;;;;;;6.23;4.80;;;;;;;;;;5029373;28;20210;-65
2022/01/19 03:10:53;;;;;;;5.63;4.30;;;;;;;;;;5026674;28;20207;-64
2022/01/19 03:13:25;;;;;;;7.70;5.37;;;;;;;;;;5026629;28;20533;-65
2022/01/19 03:15:54;;;;;;;4.87;4.00;;;;;;;;;;5023757;28;20206;-64
2022/01/19 03:18:26;;;;;;;5.97;4.67;;;;;;;;;;5025594;28;20211;-65
2022/01/19 03:20:56;;;;;;;5.40;4.50;;;;;;;;;;5011413;28;20226;-65
2022/01/19 03:23:27;;;;;;;4.87;4.37;;;;;;;;;;5021213;28;20221;-65
2022/01/19 03:25:58;;;;;;;6.17;4.87;;;;;;;;;;5026522;28;20206;-65
2022/01/19 03:28:31;;;;;;;4.90;4.40;;;;;;;;;;5011633;28;20232;-65
2022/01/19 03:31:03;;;;;;;5.97;4.57;;;;;;;;;;5006891;28;20210;-65
2022/01/19 03:33:36;;;;;;;5.37;4.70;;;;;;;;;;5001582;28;20199;-64
2022/01/19 03:36:12;;;;;;;5.87;4.63;;;;;;;;;;5009866;28;20656;-65
2022/01/19 03:38:44;;;;;;;6.13;4.67;;;;;;;;;;5004537;28;20278;-65
2022/01/19 03:41:17;;;;;;;5.73;5.13;;;;;;;;;;5006979;28;20275;-65
2022/01/19 03:43:47;;;;;;;5.13;4.63;;;;;;;;;;5008620;28;20242;-65
2022/01/19 03:46:18;;;;;;;6.03;4.83;;;;;;;;;;5009932;28;20200;-65
2022/01/19 03:49:08;;;;;;;5.97;4.93;;;;;;;;;;4990012;28;20285;-65
2022/01/19 03:51:42;;;;;;;5.37;4.47;;;;;;;;;;4995745;28;20592;-66
2022/01/19 03:54:12;;;;;;;5.30;4.50;;;;;;;;;;5005260;28;20215;-65
2022/01/19 03:56:42;;;;;;;6.77;5.00;;;;;;;;;;5011113;28;20216;-65
2022/01/19 03:59:11;;;;;;;6.33;4.77;;;;;;;;;;5006010;28;20210;-65
2022/01/19 04:01:43;;;;;;;5.57;4.50;;;;;;;;;;5010388;28;20206;-66
2022/01/19 04:04:34;;;;;;;5.80;4.13;;;;;;;;;;5005787;28;20239;-65
2022/01/19 04:07:10;;;;;;;5.57;4.33;;;;;;;;;;4990723;28;20222;-65
2022/01/19 04:09:41;;;;;;;6.03;4.70;;;;;;;;;;5005468;28;20219;-65
2022/01/19 04:12:18;;;;;;;5.27;4.30;;;;;;;;;;5017967;28;20830;-64
2022/01/19 04:14:47;;;;;;;5.47;4.40;;;;;;;;;;5026604;28;20211;-64
2022/01/19 04:17:19;;;;;;;5.80;4.73;;;;;;;;;;5012516;28;20299;-64
2022/01/19 04:19:56;;;;;;;5.03;4.47;;;;;;;;;;5009407;28;20219;-65
2022/01/19 04:22:27;;;;;;;5.47;4.70;;;;;;;;;;5010370;28;20199;-64
2022/01/19 04:24:58;;;;;;;5.00;4.57;;;;;;;;;;5024840;28;20192;-64
2022/01/19 04:27:33;;;;;;;5.50;4.53;;;;;;;;;;5040366;28;20230;-65
2022/01/19 04:30:11;;;;;;;5.27;4.00;;;;;;;;;;5024165;28;20562;-65
2022/01/19 04:33:28;;;;;;;4.63;4.17;;;;;;;;;;5029729;28;20230;-65
2022/01/19 04:35:45;;;;;;;5.87;4.43;;;;;;;;;;5033204;28;20214;-65
2022/01/19 04:39:03;;;;;;;5.03;4.00;;;;;;;;;;5028637;28;20218;-65
2022/01/19 05:04:10;;;;;;;6.00;5.10;;;;;;;;;;4973841;28;20509;-65
2022/01/19 05:06:44;;;;;;;6.27;5.53;;;;;;;;;;4976230;28;20215;-64
2022/01/19 05:14:53;;;;;;;7.37;5.43;;;;;;;;;;5007672;28;20218;-64
2022/01/19 05:17:25;;;;;;;6.93;5.83;;;;;;;;;;5008940;28;20562;-65
2022/01/19 05:19:55;;;;;;;6.07;5.30;;;;;;;;;;5027984;28;20688;-65
2022/01/19 05:22:27;;;;;;;5.87;5.07;;;;;;;;;;5026948;28;20206;-65
2022/01/19 05:24:56;;;;;;;5.80;4.90;;;;;;;;;;5034854;28;20192;-65
2022/01/19 05:27:26;;;;;;;6.43;5.40;;;;;;;;;;5015386;28;20321;-65
2022/01/19 05:29:55;;;;;;;5.10;4.60;;;;;;;;;;5009099;28;20680;-65
2022/01/19 05:32:26;;;;;;;5.70;5.17;;;;;;;;;;4996322;28;20210;-65
2022/01/19 05:35:07;;;;;;;6.60;5.43;;;;;;;;;;5014506;28;20203;-65
2022/01/19 05:37:39;;;;;;;5.43;4.47;;;;;;;;;;5004670;28;20258;-65
2022/01/19 05:40:15;;;;;;;5.70;5.10;;;;;;;;;;5007946;28;20614;-65
2022/01/19 05:42:52;;;;;;;4.97;4.47;;;;;;;;;;5007169;28;20731;-66
2022/01/19 05:45:21;;;;;;;5.33;4.27;;;;;;;;;;5004495;28;20204;-65
2022/01/19 05:47:55;;;;;;;5.97;4.57;;;;;;;;;;4997874;28;20211;-64
2022/01/19 05:50:29;;;;;;;6.90;4.80;;;;;;;;;;5008338;28;20221;-65
2022/01/19 05:53:04;;;;;;;5.43;4.40;;;;;;;;;;5002172;28;20211;-65
2022/01/19 05:55:37;;;;;;;5.10;4.60;;;;;;;;;;5001643;28;20215;-65
2022/01/19 05:58:16;;;;;;;5.30;4.60;;;;;;;;;;5006201;28;20235;-65
2022/01/19 06:00:48;;;;;;;5.47;4.97;;;;;;;;;;5008900;28;20222;-65
2022/01/19 06:03:20;;;;;;;5.27;4.73;;;;;;;;;;5006494;28;20243;-65
2022/01/19 06:05:49;;;;;;;5.40;4.90;;;;;;;;;;5003819;28;20214;-65
2022/01/19 06:11:01;;;;;;;5.53;4.90;;;;;;;;;;5011899;28;20649;-65
2022/01/19 06:13:30;;;;;;;5.10;4.60;;;;;;;;;;5011095;28;20605;-65
2022/01/19 06:16:01;;;;;;;5.37;4.70;;;;;;;;;;5008895;28;20204;-65
2022/01/19 06:18:33;;;;;;;4.73;4.17;;;;;;;;;;5007046;28;20231;-65
2022/01/19 06:21:06;;;;;;;5.37;4.67;;;;;;;;;;5011179;28;20608;-66
2022/01/19 06:23:40;;;;;;;5.70;4.37;;;;;;;;;;5004463;28;20212;-66
2022/01/19 06:26:10;;;;;;;6.60;4.63;;;;;;;;;;5020199;28;20275;-65
2022/01/19 06:28:40;;;;;;;5.63;4.73;;;;;;;;;;5029192;28;20239;-65
2022/01/19 06:31:12;;;;;;;4.23;3.83;;;;;;;;;;5029740;28;20305;-65
2022/01/19 06:33:41;;;;;;;4.37;3.97;;;;;;;;;;5024808;28;20254;-65
2022/01/19 06:36:11;;;;;;;5.30;4.17;;;;;;;;;;5025890;28;20201;-65
2022/01/19 06:38:41;;;;;;;4.67;4.17;;;;;;;;;;5025549;28;20226;-65
2022/01/19 06:41:16;;;;;;;4.37;3.97;;;;;;;;;;5027269;28;20191;-65
2022/01/19 06:43:46;;;;;;;4.50;3.93;;;;;;;;;;5022994;28;20619;-65
2022/01/19 06:46:16;;;;;;;5.40;4.33;;;;;;;;;;5011436;28;20204;-66
2022/01/19 06:48:46;;;;;;;5.00;4.50;;;;;;;;;;5030342;28;20662;-65
2022/01/19 06:51:15;;;;;;;6.63;4.37;;;;;;;;;;5028463;28;20203;-65
2022/01/19 06:53:44;;;;;;;5.03;4.57;;;;;;;;;;5020767;28;20210;-65
2022/01/19 06:56:20;;;;;;;5.20;4.50;;;;;;;;;;5026400;28;20222;-65
2022/01/19 06:58:53;;;;;;;4.77;4.27;;;;;;;;;;5027668;28;20245;-65
2022/01/19 07:01:25;;;;;;;5.40;4.00;;;;;;;;;;4964832;28;20212;-65
2022/01/19 07:03:57;;;;;;;4.90;4.37;;;;;;;;;;5017752;28;20196;-65
2022/01/19 07:06:28;;;;;;;4.83;4.43;;;;;;;;;;5020529;28;20214;-66
2022/01/19 07:08:59;;;;;;;5.37;4.87;;;;;;;;;;5029021;28;20260;-65
2022/01/19 07:11:27;;;;;;;5.13;4.63;;;;;;;;;;5033559;28;20207;-65
2022/01/19 07:13:57;;;;;;;4.80;4.30;;;;;;;;;;5025950;28;20691;-65
2022/01/19 07:16:26;;;;;;;5.57;4.90;;;;;;;;;;5017947;28;20198;-65
2022/01/19 07:18:58;;;;;;;4.70;4.30;;;;;;;;;;5018953;28;20583;-65
2022/01/19 07:21:27;;;;;;;5.43;4.87;;;;;;;;;;5016469;28;20206;-66
2022/01/19 07:23:59;;;;;;;5.13;4.60;;;;;;;;;;5022106;28;20261;-66
2022/01/19 07:26:29;;;;;;;6.13;4.33;;;;;;;;;;5027820;28;20482;-66
2022/01/19 07:28:58;;;;;;;4.67;4.27;;;;;;;;;;5004378;28;20214;-65
2022/01/19 07:31:30;;;;;;;4.40;4.00;;;;;;;;;;4993701;28;20206;-65
2022/01/19 07:34:01;;;;;;;4.37;3.97;;;;;;;;;;5007852;28;20216;-64
2022/01/19 07:36:32;;;;;;;5.30;4.47;;;;;;;;;;5015772;28;21745;-64
2022/01/19 07:39:03;;;;;;;6.20;5.60;;;;;;;;;;5006610;28;20216;-64
2022/01/19 07:41:32;;;;;;;4.80;4.33;;;;;;;;;;4997641;28;20200;-65
2022/01/19 07:44:05;;;;;;;5.33;4.50;;;;;;;;;;5006982;28;20188;-65
2022/01/19 07:46:38;;;;;;;5.57;5.00;;;;;;;;;;5013632;28;20223;-63
2022/01/19 07:49:10;;;;;;;5.20;4.63;;;;;;;;;;5003904;28;20259;-63
2022/01/19 07:51:41;;;;;;;6.03;4.63;;;;;;;;;;5004837;28;20214;-65
2022/01/19 07:54:16;;;;;;;4.87;4.37;;;;;;;;;;4986170;28;20224;-65
2022/01/19 07:56:47;;;;;;;5.27;4.70;;;;;;;;;;4982392;28;20322;-64
2022/01/19 07:59:21;;;;;;;4.50;4.10;;;;;;;;;;5001871;28;20302;-64
2022/01/19 08:01:54;;;;;;;4.93;4.43;;;;;;;;;;4999336;28;20218;-65
2022/01/19 08:04:22;;;;;;;4.93;4.43;;;;;;;;;;5006540;28;20691;-65
2022/01/19 08:06:54;;;;;;;4.97;4.47;;;;;;;;;;5004446;28;20207;-65
2022/01/19 08:09:23;;;;;;;4.43;4.03;;;;;;;;;;5010456;28;20243;-65
2022/01/19 08:11:55;;;;;;;5.30;4.40;;;;;;;;;;4986882;28;20227;-64
2022/01/19 08:14:26;;;;;;;5.27;4.40;;;;;;;;;;4991446;28;20231;-64
2022/01/19 08:16:58;;;;;;;4.33;3.93;;;;;;;;;;4989743;28;20215;-64
2022/01/19 08:19:28;;;;;;;4.50;4.13;;;;;;;;;;5003870;28;20677;-64
2022/01/19 08:21:57;;;;;;;4.67;3.90;;;;;;;;;;5006243;28;20620;-63
2022/01/19 08:24:28;;;;;;;3.90;3.57;;;;;;;;;;4998601;28;20212;-63
2022/01/19 08:27:05;;;;;;;4.27;3.50;;;;;;;;;;5011298;28;20241;-64
2022/01/19 08:29:33;;;;;;;4.47;3.97;;;;;;;;;;5023611;28;20257;-63
2022/01/19 08:32:02;;;;;;;4.27;3.83;;;;;;;;;;5025146;28;20230;-64
2022/01/19 08:34:55;;;;;;;4.10;3.70;;;;;;;;;;5012643;28;20270;-64
2022/01/19 08:37:25;;;;;;;3.87;3.50;;;;;;;;;;5017624;28;20207;-64
2022/01/19 08:39:59;;;;;;;4.30;3.90;;;;;;;;;;5008697;28;20245;-64
2022/01/19 08:42:33;;;;;;;3.70;3.40;;;;;;;;;;5020291;28;20647;-65
2022/01/19 08:45:07;;;;;;;4.73;4.10;;;;;;;;;;5021405;28;20625;-65
2022/01/19 08:47:41;;;;;;;4.07;3.10;;;;;;;;;;5007148;28;20597;-65
2022/01/19 08:50:28;;;;;;;4.27;3.87;;;;;;;;;;5025788;28;20207;-64
2022/01/19 08:52:58;;;;;;;3.40;3.10;;;;;;;;;;5022961;28;20219;-63
2022/01/19 08:55:26;;;;;;;3.03;2.73;;;;;;;;;;5022749;28;20229;-63
2022/01/19 08:58:07;;;;;;;3.30;3.00;;;;;;;;;;5024358;28;20829;-63
2022/01/19 09:00:38;;;;;;;13.97;5.60;;;;;;;;;;5004211;28;20293;-65
2022/01/19 09:03:09;;;;;;;33.93;8.30;;;;;;;;;;5019661;28;20214;-64
2022/01/19 09:05:39;;;;;;;36.00;8.27;;;;;;;;;;5000563;28;20203;-64
2022/01/19 09:08:10;;;;;;;21.90;6.77;;;;;;;;;;5013818;28;20708;-65
2022/01/19 09:10:41;;;;;;;17.80;6.33;;;;;;;;;;5025257;28;20316;-65
2022/01/19 09:13:15;;;;;;;19.20;6.53;;;;;;;;;;5007455;28;20317;-63
2022/01/19 09:15:45;;;;;;;13.83;5.77;;;;;;;;;;5023257;28;20292;-66
2022/01/19 09:18:18;;;;;;;16.20;6.37;;;;;;;;;;5023117;28;20257;-65
2022/01/19 09:20:50;;;;;;;11.03;4.93;;;;;;;;;;5026550;28;20688;-66
2022/01/19 09:23:27;;;;;;;11.77;4.93;;;;;;;;;;5004326;28;20273;-65
2022/01/19 09:26:01;;;;;;;13.17;5.30;;;;;;;;;;5029655;28;20219;-64
2022/01/19 09:28:32;;;;;;;13.50;5.13;;;;;;;;;;5027249;28;20243;-64
2022/01/19 09:31:18;;;;;;;9.53;4.80;;;;;;;;;;5005864;28;20682;-65
2022/01/19 09:34:04;;;;;;;9.70;4.97;;;;;;;;;;5003860;28;20215;-65
2022/01/19 09:36:44;;;;;;;9.23;5.00;;;;;;;;;;5010643;28;20210;-65
2022/01/19 09:39:22;;;;;;;7.57;4.50;;;;;;;;;;5012376;28;20232;-65
2022/01/19 09:41:54;;;;;;;11.23;4.27;;;;;;;;;;5002844;28;20214;-66
2022/01/19 09:44:29;;;;;;;7.97;4.23;;;;;;;;;;5001358;28;20204;-67
2022/01/19 09:47:01;;;;;;;9.23;4.00;;;;;;;;;;5002424;28;20637;-65
2022/01/19 09:49:30;;;;;;;7.33;4.00;;;;;;;;;;5011238;28;20214;-66
2022/01/19 09:51:58;;;;;;;6.93;3.90;;;;;;;;;;5007027;28;20218;-66
2022/01/19 09:54:27;;;;;;;6.87;3.83;;;;;;;;;;5013837;28;20284;-68
2022/01/19 09:56:56;;;;;;;8.20;3.27;;;;;;;;;;5004825;28;20217;-66
2022/01/19 09:59:27;;;;;;;4.93;3.30;;;;;;;;;;5015910;28;20664;-67
2022/01/19 10:02:02;;;;;;;5.10;2.93;;;;;;;;;;5008609;28;20234;-67
2022/01/19 10:04:33;;;;;;;5.87;3.20;;;;;;;;;;5007691;28;20257;-67
2022/01/19 10:07:17;;;;;;;5.07;3.20;;;;;;;;;;5013495;28;20277;-66
2022/01/19 10:10:03;;;;;;;5.10;3.20;;;;;;;;;;5002447;28;20216;-65
2022/01/19 10:18:33;;;;;;;4.77;3.43;;;;;;;;;;5006619;28;20809;-67
2022/01/19 10:21:06;;;;;;;6.23;3.00;;;;;;;;;;5013791;28;20203;-66
2022/01/19 10:23:52;;;;;;;3.80;2.50;;;;;;;;;;5009773;28;20733;-66
2022/01/19 10:26:28;;;;;;;4.70;2.90;;;;;;;;;;5008492;28;20210;-69
2022/01/19 10:29:08;;;;;;;4.17;2.60;;;;;;;;;;5010875;28;20193;-68
2022/01/19 10:31:40;;;;;;;4.73;2.57;;;;;;;;;;5006847;28;20284;-68
2022/01/19 10:34:11;;;;;;;5.07;3.10;;;;;;;;;;5014798;28;20202;-68
2022/01/19 10:36:52;;;;;;;4.10;2.70;;;;;;;;;;5029553;28;20199;-69
2022/01/19 10:39:23;;;;;;;4.90;3.17;;;;;;;;;;5013927;28;20222;-65
2022/01/19 10:42:05;;;;;;;4.13;3.00;;;;;;;;;;5010425;28;20283;-66
2022/01/19 10:44:39;;;;;;;4.93;3.13;;;;;;;;;;5029170;28;20218;-66
2022/01/19 10:47:53;;;;;;;3.37;2.50;;;;;;;;;;5002543;28;20207;-66
2022/01/19 10:50:28;;;;;;;5.63;2.60;;;;;;;;;;5029979;28;20737;-66
2022/01/19 10:53:07;;;;;;;5.47;2.87;;;;;;;;;;5024005;28;20203;-66
2022/01/19 10:55:42;;;;;;;3.70;2.70;;;;;;;;;;5027212;28;20211;-67
2022/01/19 10:58:15;;;;;;;4.60;2.40;;;;;;;;;;5034957;28;20211;-66
2022/01/19 11:00:50;;;;;;;3.67;2.43;;;;;;;;;;5012901;28;20194;-67
2022/01/19 11:03:27;;;;;;;3.13;2.43;;;;;;;;;;5027733;28;20237;-67
2022/01/19 11:06:06;;;;;;;3.47;2.23;;;;;;;;;;5030987;28;20667;-68
2022/01/19 11:08:45;;;;;;;3.37;2.50;;;;;;;;;;5041465;28;20215;-68
2022/01/19 11:11:21;;;;;;;2.37;2.17;;;;;;;;;;5033854;28;20194;-66
2022/01/19 11:13:55;;;;;;;4.67;2.50;;;;;;;;;;5025282;28;20207;-66
2022/01/19 11:16:33;;;;;;;2.87;2.23;;;;;;;;;;5029253;28;20285;-67
2022/01/19 11:19:10;;;;;;;2.53;2.20;;;;;;;;;;5028095;28;20230;-67
2022/01/19 11:22:12;;;;;;;3.63;2.63;;;;;;;;;;5027585;28;20261;-67
2022/01/19 11:25:06;;;;;;;2.77;2.57;;;;;;;;;;4989725;28;20234;-67
2022/01/19 11:27:57;;;;;;;2.77;2.40;;;;;;;;;;5019582;28;20800;-67
2022/01/19 11:30:32;;;;;;;2.87;2.67;;;;;;;;;;5019161;28;20207;-65
2022/01/19 11:33:24;;;;;;;3.00;2.70;;;;;;;;;;5028235;28;20203;-65
2022/01/19 11:36:19;;;;;;;3.20;2.60;;;;;;;;;;5027834;28;20191;-65
2022/01/19 11:39:20;;;;;;;4.60;2.90;;;;;;;;;;5031465;28;20296;-65
2022/01/19 11:42:00;;;;;;;3.03;2.67;;;;;;;;;;5007290;28;20934;-65
2022/01/19 11:44:30;;;;;;;3.00;2.70;;;;;;;;;;5026388;28;20217;-65
2022/01/19 11:47:13;;;;;;;2.90;2.67;;;;;;;;;;5028892;28;20203;-67
2022/01/19 11:49:59;;;;;;;2.97;2.60;;;;;;;;;;5025818;28;20213;-67
2022/01/19 11:52:38;;;;;;;3.17;2.70;;;;;;;;;;5026278;28;20207;-66
2022/01/19 11:55:13;;;;;;;3.03;2.70;;;;;;;;;;5016397;28;20202;-65
2022/01/19 11:57:45;;;;;;;4.40;2.38;;;;;;;;;;5026473;28;20437;-67
2022/01/19 12:00:25;;;;;;;3.03;2.13;;;;;;;;;;5028036;28;20272;-67
2022/01/19 12:02:59;;;;;;;3.47;2.10;;;;;;;;;;5042147;28;20182;-68
2022/01/19 12:05:52;;;;;;;2.53;2.10;;;;;;;;;;5018542;28;20194;-68
2022/01/19 12:08:32;;;;;;;3.40;2.37;;;;;;;;;;5025306;28;20207;-67
2022/01/19 12:11:26;;;;;;;2.10;1.90;;;;;;;;;;5018695;28;20203;-67
2022/01/19 12:17:09;;;;;;;2.70;1.80;;;;;;;;;;5025877;28;20752;-66
2022/01/19 12:19:42;;;;;;;1.83;1.60;;;;;;;;;;5025827;28;20226;-65
2022/01/19 12:22:34;;;;;;;2.20;1.90;;;;;;;;;;5031836;28;20230;-66
2022/01/19 12:25:08;;;;;;;1.70;1.53;;;;;;;;;;5028219;28;20201;-67
2022/01/19 12:27:42;;;;;;;2.80;1.67;;;;;;;;;;5004392;28;20250;-66
2022/01/19 12:30:12;;;;;;;5.33;2.10;;;;;;;;;;5029801;28;20214;-65
2022/01/19 12:32:51;;;;;;;2.23;1.50;;;;;;;;;;5024795;28;20202;-65
2022/01/19 12:35:41;;;;;;;1.70;1.60;;;;;;;;;;5028673;28;20265;-64
2022/01/19 12:38:20;;;;;;;2.27;1.87;;;;;;;;;;4992223;28;20660;-64
2022/01/19 12:41:02;;;;;;;1.93;1.73;;;;;;;;;;5025805;28;20251;-64
2022/01/19 12:43:36;;;;;;;2.97;2.30;;;;;;;;;;5021052;28;20763;-66
2022/01/19 12:46:09;;;;;;;2.40;2.20;;;;;;;;;;5010680;28;20257;-65
2022/01/19 12:48:50;;;;;;;2.27;2.07;;;;;;;;;;5023159;28;20203;-65
2022/01/19 12:51:43;;;;;;;2.73;2.27;;;;;;;;;;5039033;28;20254;-67
2022/01/19 12:54:16;;;;;;;3.27;2.47;;;;;;;;;;5021828;28;20213;-67
2022/01/19 12:56:55;;;;;;;2.37;2.17;;;;;;;;;;5025844;28;20206;-66
2022/01/19 12:59:23;;;;;;;3.23;2.73;;;;;;;;;;5026226;28;20218;-66
2022/01/19 13:01:52;;;;;;;3.50;3.17;;;;;;;;;;5003298;28;20209;-65
2022/01/19 13:04:25;;;;;;;2.80;2.60;;;;;;;;;;5024431;28;20213;-65
2022/01/19 13:07:20;;;;;;;3.00;2.70;;;;;;;;;;5027851;28;20569;-67
2022/01/19 13:10:54;;;;;;;3.60;2.50;;;;;;;;;;5025056;28;20199;-66
2022/01/19 13:13:12;;;;;;;3.07;2.77;;;;;;;;;;5013770;28;20651;-65
2022/01/19 13:15:50;;;;;;;3.10;2.90;;;;;;;;;;5021438;28;20202;-67
2022/01/19 13:18:33;;;;;;;3.63;3.10;;;;;;;;;;5018198;28;20225;-67
2022/01/19 13:21:12;;;;;;;3.50;3.20;;;;;;;;;;5005515;28;20209;-68
2022/01/19 13:23:59;;;;;;;3.43;3.13;;;;;;;;;;5022030;28;20207;-67
2022/01/19 13:26:48;;;;;;;3.40;3.10;;;;;;;;;;5023673;28;20317;-66
2022/01/19 13:29:38;;;;;;;3.20;2.60;;;;;;;;;;5025357;28;20223;-66
2022/01/19 13:32:20;;;;;;;2.90;2.40;;;;;;;;;;5028601;28;20199;-66
2022/01/19 13:35:14;;;;;;;2.73;2.47;;;;;;;;;;5008914;28;20710;-67
2022/01/19 13:37:48;;;;;;;2.80;2.50;;;;;;;;;;5022944;28;20261;-68
2022/01/19 13:40:25;;;;;;;2.13;1.93;;;;;;;;;;5008436;28;20230;-67
2022/01/19 13:43:18;;;;;;;2.33;1.97;;;;;;;;;;5023143;28;20667;-66
2022/01/19 13:46:13;;;;;;;3.30;3.00;;;;;;;;;;5020918;28;20219;-64
2022/01/19 13:48:47;;;;;;;3.70;3.00;;;;;;;;;;5026569;28;20646;-64
2022/01/19 13:51:29;;;;;;;3.33;3.03;;;;;;;;;;5024302;28;20723;-64
2022/01/19 13:54:04;;;;;;;5.47;2.90;;;;;;;;;;5022626;28;20218;-64
2022/01/19 13:56:41;;;;;;;3.13;2.83;;;;;;;;;;5025285;28;20194;-65
2022/01/19 13:59:18;;;;;;;2.97;2.30;;;;;;;;;;4998977;28;20230;-65
2022/01/19 14:02:10;;;;;;;3.37;2.47;;;;;;;;;;5006790;28;20804;-65
2022/01/19 14:04:53;;;;;;;2.00;1.80;;;;;;;;;;5025119;28;20335;-66
2022/01/19 14:07:25;;;;;;;2.90;2.07;;;;;;;;;;5009490;28;20444;-65
2022/01/19 14:10:18;;;;;;;2.77;2.03;;;;;;;;;;5025858;28;20273;-66
2022/01/19 14:12:48;;;;;;;2.30;2.10;;;;;;;;;;5010513;28;20207;-64
2022/01/19 14:15:26;;;;;;;2.37;2.17;;;;;;;;;;5025142;28;20667;-64
2022/01/19 14:17:55;;;;;;;3.77;2.00;;;;;;;;;;5003875;28;20213;-64
2022/01/19 14:20:25;;;;;;;1.90;1.70;;;;;;;;;;5028524;28;20235;-68
2022/01/19 14:23:13;;;;;;;2.17;1.87;;;;;;;;;;5023127;28;20273;-67
2022/01/19 14:25:43;;;;;;;1.90;1.80;;;;;;;;;;4999907;28;20205;-67
2022/01/19 14:28:14;;;;;;;2.13;1.90;;;;;;;;;;5026748;28;20570;-67
2022/01/19 14:30:42;;;;;;;2.10;1.90;;;;;;;;;;5020486;28;20216;-67
2022/01/19 14:33:30;;;;;;;1.80;1.70;;;;;;;;;;5019917;28;20500;-67
2022/01/19 14:36:01;;;;;;;2.10;1.90;;;;;;;;;;5033844;28;20226;-68
2022/01/19 14:38:36;;;;;;;2.83;2.00;;;;;;;;;;5022921;28;20199;-67
2022/01/19 14:41:31;;;;;;;2.30;2.10;;;;;;;;;;5024877;28;20202;-67
2022/01/19 14:44:19;;;;;;;2.30;2.07;;;;;;;;;;5027183;28;20203;-66
2022/01/19 14:47:30;;;;;;;2.17;1.60;;;;;;;;;;5031049;28;20238;-66
2022/01/19 14:49:48;;;;;;;2.20;2.00;;;;;;;;;;5021254;28;20211;-66
2022/01/19 14:52:21;;;;;;;2.13;1.90;;;;;;;;;;5022600;28;20585;-66
2022/01/19 14:54:54;;;;;;;2.20;2.00;;;;;;;;;;5027141;28;20666;-66
2022/01/19 14:57:25;;;;;;;2.43;2.03;;;;;;;;;;5032879;28;20214;-65
2022/01/19 14:59:56;;;;;;;2.20;1.90;;;;;;;;;;5024338;28;20214;-65
2022/01/19 15:02:29;;;;;;;2.60;1.90;;;;;;;;;;5028198;28;20199;-67
2022/01/19 15:05:00;;;;;;;2.10;1.90;;;;;;;;;;5027644;28;20206;-67
2022/01/19 15:07:36;;;;;;;3.40;2.07;;;;;;;;;;5024978;28;20386;-67
2022/01/19 15:10:10;;;;;;;4.47;2.90;;;;;;;;;;5032880;28;20207;-67
2022/01/19 15:12:39;;;;;;;2.33;2.10;;;;;;;;;;5004864;28;20214;-67
2022/01/19 15:15:09;;;;;;;3.47;1.97;;;;;;;;;;5027439;28;20223;-67
2022/01/19 15:17:37;;;;;;;2.07;1.77;;;;;;;;;;5025003;28;20269;-67
2022/01/19 15:20:18;;;;;;;2.03;1.90;;;;;;;;;;5032837;28;20679;-68
2022/01/19 15:22:48;;;;;;;1.90;1.80;;;;;;;;;;5031642;28;20278;-66
2022/01/19 15:25:38;;;;;;;1.90;1.80;;;;;;;;;;5040522;28;20208;-64
2022/01/19 15:28:25;;;;;;;2.40;2.20;;;;;;;;;;5038410;28;20869;-65
2022/01/19 15:31:04;;;;;;;2.13;1.93;;;;;;;;;;5031077;28;20211;-66
2022/01/19 15:33:31;;;;;;;2.03;1.90;;;;;;;;;;5024292;28;20203;-66
2022/01/19 15:36:19;;;;;;;2.70;1.93;;;;;;;;;;5034261;28;20183;-66
2022/01/19 15:38:49;;;;;;;2.10;1.90;;;;;;;;;;5027005;28;20207;-66
2022/01/19 15:41:22;;;;;;;2.73;1.90;;;;;;;;;;5033835;28;20298;-67
2022/01/19 15:43:55;;;;;;;2.50;2.30;;;;;;;;;;5020391;28;20298;-67
2022/01/19 15:46:28;;;;;;;5.20;2.50;;;;;;;;;;5032759;28;20206;-66
2022/01/19 15:49:07;;;;;;;2.17;1.97;;;;;;;;;;5027959;28;20251;-68
2022/01/19 15:51:40;;;;;;;2.93;2.30;;;;;;;;;;5016077;28;20281;-65
2022/01/19 15:54:16;;;;;;;2.17;2.00;;;;;;;;;;5023504;28;20302;-65
2022/01/19 15:56:51;;;;;;;2.17;2.07;;;;;;;;;;5020576;28;20329;-66
2022/01/19 15:59:23;;;;;;;2.40;2.17;;;;;;;;;;5012774;28;20195;-67
2022/01/19 16:01:54;;;;;;;2.50;2.30;;;;;;;;;;5018924;28;20251;-66
2022/01/19 16:04:25;;;;;;;3.70;2.50;;;;;;;;;;5034909;28;20203;-64
2022/01/19 16:06:59;;;;;;;2.80;2.30;;;;;;;;;;5033214;28;20897;-68
2022/01/19 16:09:30;;;;;;;2.50;2.20;;;;;;;;;;5030816;28;20206;-68
2022/01/19 16:12:01;;;;;;;4.00;2.43;;;;;;;;;;5014400;28;20243;-68
2022/01/19 16:14:35;;;;;;;2.80;2.40;;;;;;;;;;5008266;28;20232;-67
2022/01/19 16:17:06;;;;;;;3.63;2.30;;;;;;;;;;5036328;28;20265;-66
2022/01/19 16:19:34;;;;;;;3.20;2.20;;;;;;;;;;5020828;28;20245;-64
2022/01/19 16:22:13;;;;;;;2.60;2.27;;;;;;;;;;5006337;28;20759;-68
2022/01/19 16:27:35;;;;;;;3.13;2.60;;;;;;;;;;5023322;28;20239;-67
2022/01/19 16:30:09;;;;;;;2.83;2.17;;;;;;;;;;5026428;28;20261;-68
2022/01/19 16:32:40;;;;;;;4.63;2.60;;;;;;;;;;5022827;28;20202;-67
2022/01/19 16:35:12;;;;;;;3.30;2.47;;;;;;;;;;5025640;28;20260;-69
2022/01/19 16:37:44;;;;;;;2.53;2.33;;;;;;;;;;5023781;28;20263;-67
2022/01/19 16:40:29;;;;;;;4.90;4.38;;;;;;;;;;5023552;28;20527;-69
2022/01/19 16:43:00;;;;;;;4.20;3.80;;;;;;;;;;5021903;28;20238;-69
2022/01/19 16:45:31;;;;;;;3.90;3.50;;;;;;;;;;5011488;28;20215;-69
2022/01/19 16:48:04;;;;;;;4.47;3.50;;;;;;;;;;5031183;28;20210;-69
2022/01/19 16:50:37;;;;;;;3.93;3.37;;;;;;;;;;5030591;28;20279;-68
2022/01/19 16:53:08;;;;;;;4.67;4.10;;;;;;;;;;5028225;28;20278;-68
2022/01/19 16:55:41;;;;;;;4.37;3.87;;;;;;;;;;5023732;28;20215;-66
2022/01/19 16:58:11;;;;;;;5.93;4.23;;;;;;;;;;5030162;28;20203;-69
2022/01/19 17:00:41;;;;;;;5.13;4.00;;;;;;;;;;5011343;28;20218;-69
2022/01/19 17:03:11;;;;;;;4.83;4.33;;;;;;;;;;5010464;28;20252;-68